Time;durP1;ratioP1;P1;durP2;ratioP2;P2;SDS_P1;SDS_P2;PMS_P1;PMS_P2;Temp;Humidity;BMP_temperature;BMP_pressure;BME280_temperature;BME280_humidity;BME280_pressure;Samples;Min_cycle;Max_cycle;Signal;HPM_P1;HPM_P2
2022/09/16 00:00:28;;;;;;;4.88;1.40;;;12.90;94.10;;;;;;4971386;28;20429;-65
2022/09/16 00:02:55;;;;;;;5.60;1.33;;;12.80;94.20;;;;;;4970734;28;20225;-65
2022/09/16 00:05:21;;;;;;;3.72;1.45;;;12.80;94.30;;;;;;4947801;28;20077;-65
2022/09/16 00:07:46;;;;;;;4.88;1.33;;;12.80;94.20;;;;;;4970938;28;20465;-65
2022/09/16 00:10:12;;;;;;;6.05;1.27;;;12.70;94.20;;;;;;4956049;28;20070;-65
2022/09/16 00:12:38;;;;;;;4.93;1.10;;;12.80;94.20;;;;;;4950549;28;20054;-64
2022/09/16 00:15:04;;;;;;;6.88;1.40;;;12.70;94.20;;;;;;4965662;28;20050;-66
2022/09/16 00:17:30;;;;;;;4.97;1.20;;;12.70;94.20;;;;;;4968106;28;20134;-64
2022/09/16 00:19:57;;;;;;;9.45;1.52;;;12.70;94.30;;;;;;4951059;28;20134;-65
2022/09/16 00:22:23;;;;;;;4.22;1.10;;;12.70;94.20;;;;;;4920865;28;20508;-65
2022/09/16 00:24:48;;;;;;;7.57;1.42;;;12.70;94.10;;;;;;4968793;28;20126;-65
2022/09/16 00:27:15;;;;;;;4.72;1.15;;;12.60;94.10;;;;;;4970310;28;20517;-64
2022/09/16 00:29:42;;;;;;;4.05;1.10;;;12.60;94.10;;;;;;4969204;28;20035;-64
2022/09/16 00:32:07;;;;;;;4.38;0.93;;;12.60;94.10;;;;;;4964715;28;20043;-65
2022/09/16 00:34:33;;;;;;;2.40;1.00;;;12.60;94.10;;;;;;4969112;28;20098;-65
2022/09/16 00:37:02;;;;;;;4.05;0.98;;;12.60;94.10;;;;;;4968745;28;20047;-65
2022/09/16 00:39:28;;;;;;;3.97;1.20;;;12.60;94.00;;;;;;4959359;28;20055;-64
2022/09/16 00:41:53;;;;;;;4.28;1.30;;;12.60;94.20;;;;;;4952995;28;20051;-64
2022/09/16 00:44:52;;;;;;;5.75;1.23;;;12.50;94.20;;;;;;4960526;28;20437;-64
2022/09/16 00:47:28;;;;;;;4.35;1.33;;;12.50;94.20;;;;;;4968480;28;20094;-65
2022/09/16 00:49:55;;;;;;;7.78;2.08;;;12.50;94.30;;;;;;4973177;28;20047;-65
2022/09/16 00:52:21;;;;;;;4.83;1.30;;;12.50;94.20;;;;;;4951646;28;20055;-64
2022/09/16 00:54:47;;;;;;;6.75;1.38;;;12.50;94.30;;;;;;4941390;28;20306;-65
2022/09/16 00:57:13;;;;;;;6.10;1.20;;;12.50;94.30;;;;;;4961499;28;20066;-65
2022/09/16 00:59:40;;;;;;;3.30;1.10;;;12.50;94.10;;;;;;4939611;28;20051;-65
2022/09/16 01:02:09;;;;;;;4.85;1.30;;;12.50;94.30;;;;;;4940906;29;20050;-66
2022/09/16 01:04:42;;;;;;;5.53;1.33;;;12.40;94.40;;;;;;4973330;28;20137;-65
2022/09/16 01:07:07;;;;;;;6.68;1.23;;;12.40;94.40;;;;;;4962040;28;20537;-65
2022/09/16 01:09:33;;;;;;;5.15;1.55;;;12.40;94.50;;;;;;4965110;28;20054;-65
2022/09/16 01:11:59;;;;;;;6.68;1.27;;;12.40;94.50;;;;;;4952034;28;20070;-65
2022/09/16 01:17:16;;;;;;;6.97;1.70;;;12.30;94.50;;;;;;4971276;28;20055;-65
2022/09/16 01:20:09;;;;;;;5.78;1.50;;;12.40;94.50;;;;;;4957521;28;20051;-65
2022/09/16 01:22:37;;;;;;;3.95;1.30;;;12.30;94.60;;;;;;4958549;28;20053;-66
2022/09/16 01:25:06;;;;;;;9.65;1.38;;;12.30;94.80;;;;;;4953816;28;20047;-65
2022/09/16 01:27:42;;;;;;;7.90;1.30;;;12.30;94.80;;;;;;4972447;28;20058;-65
2022/09/16 01:30:32;;;;;;;7.22;1.48;;;12.30;94.70;;;;;;4964181;28;20050;-66
2022/09/16 01:33:03;;;;;;;5.63;1.85;;;12.30;94.70;;;;;;4947077;28;20047;-64
2022/09/16 01:35:51;;;;;;;6.53;1.52;;;12.20;94.80;;;;;;4950951;28;20127;-64
2022/09/16 01:38:45;;;;;;;5.50;1.40;;;12.30;94.90;;;;;;4964403;28;20050;-65
2022/09/16 01:41:19;;;;;;;6.18;1.63;;;12.20;94.90;;;;;;4956160;28;20499;-65
2022/09/16 01:43:53;;;;;;;4.05;1.48;;;12.30;94.90;;;;;;4958131;28;20083;-65
2022/09/16 01:46:21;;;;;;;6.00;1.67;;;12.20;95.00;;;;;;4963269;28;20757;-64
2022/09/16 01:49:13;;;;;;;4.63;1.87;;;12.20;95.10;;;;;;4967145;28;20083;-64
2022/09/16 01:51:52;;;;;;;4.90;1.75;;;12.20;95.10;;;;;;4959898;28;20858;-64
2022/09/16 01:54:30;;;;;;;7.32;2.10;;;12.30;95.10;;;;;;4970524;28;20057;-65
2022/09/16 01:57:19;;;;;;;6.10;2.22;;;12.20;95.20;;;;;;4964307;28;20102;-65
2022/09/16 01:59:49;;;;;;;;;;;12.20;95.10;;;;;;4967554;28;20548;-64
2022/09/16 02:02:17;;;;;;;6.72;2.03;;;12.20;95.20;;;;;;4938631;28;20219;-65
2022/09/16 02:04:50;;;;;;;5.50;2.15;;;12.20;95.20;;;;;;4970147;28;20082;-64
2022/09/16 02:07:17;;;;;;;8.10;2.55;;;12.20;95.20;;;;;;4950038;28;20488;-65
2022/09/16 02:09:53;;;;;;;11.40;2.53;;;12.20;95.30;;;;;;4951053;28;20058;-64
2022/09/16 02:12:22;;;;;;;8.80;2.78;;;12.20;95.30;;;;;;4961035;28;20047;-64
2022/09/16 02:14:48;;;;;;;4.45;2.33;;;12.20;95.30;;;;;;4963556;28;20050;-64
2022/09/16 02:17:14;;;;;;;7.63;2.72;;;12.20;95.30;;;;;;4942190;28;20105;-64
2022/09/16 02:19:54;;;;;;;5.25;2.25;;;12.10;95.40;;;;;;4942185;28;20066;-65
2022/09/16 02:22:42;;;;;;;7.65;2.50;;;12.20;95.40;;;;;;4957969;28;20451;-64
2022/09/16 02:25:08;;;;;;;7.03;2.40;;;12.10;95.40;;;;;;4974889;28;20051;-65
2022/09/16 02:27:35;;;;;;;7.72;2.60;;;12.20;95.40;;;;;;4974706;28;20377;-65
2022/09/16 02:30:08;;;;;;;6.20;2.20;;;12.20;95.40;;;;;;4971609;28;20101;-65
2022/09/16 02:32:36;;;;;;;6.63;2.20;;;12.20;95.30;;;;;;4962760;28;20346;-65
2022/09/16 02:35:02;;;;;;;5.15;2.10;;;12.20;95.20;;;;;;4962586;28;20054;-64
2022/09/16 02:37:33;;;;;;;9.32;2.28;;;12.20;95.20;;;;;;4951561;28;20049;-64
2022/09/16 02:40:03;;;;;;;5.78;2.42;;;12.20;95.20;;;;;;4958965;28;20058;-64
2022/09/16 02:42:29;;;;;;;8.68;2.30;;;12.20;95.20;;;;;;4950554;28;20747;-64
2022/09/16 02:44:55;;;;;;;7.53;1.98;;;12.20;95.10;;;;;;4956458;28;20138;-64
2022/09/16 02:47:42;;;;;;;4.72;2.58;;;12.20;94.90;;;;;;4960653;28;20047;-64
2022/09/16 02:50:14;;;;;;;8.52;1.95;;;12.30;95.00;;;;;;4969103;28;20047;-64
2022/09/16 02:53:07;;;;;;;6.13;1.92;;;12.20;95.00;;;;;;4958378;28;20129;-64
2022/09/16 02:56:08;;;;;;;8.07;2.03;;;12.20;94.90;;;;;;4966104;28;20043;-64
2022/09/16 02:58:34;;;;;;;6.57;2.47;;;12.20;94.90;;;;;;4940771;28;20055;-64
2022/09/16 03:01:00;;;;;;;6.55;1.77;;;12.30;94.90;;;;;;4968700;28;20497;-64
2022/09/16 03:03:26;;;;;;;4.75;1.85;;;12.20;94.80;;;;;;4964671;28;20062;-65
2022/09/16 03:06:15;;;;;;;4.43;1.52;;;12.20;94.80;;;;;;4964975;28;20042;-65
2022/09/16 03:08:41;;;;;;;5.55;1.98;;;12.10;94.90;;;;;;4974156;28;20043;-64
2022/09/16 03:11:27;;;;;;;3.78;1.60;;;12.10;94.90;;;;;;4969116;28;20387;-64
2022/09/16 03:14:12;;;;;;;8.23;2.22;;;12.10;95.00;;;;;;4972161;28;20042;-65
2022/09/16 03:17:03;;;;;;;8.07;2.10;;;12.10;95.00;;;;;;4970289;28;20061;-65
2022/09/16 03:19:44;;;;;;;6.78;2.47;;;12.10;95.00;;;;;;4971534;28;20161;-64
2022/09/16 03:22:25;;;;;;;7.18;2.08;;;12.10;95.10;;;;;;4970504;28;20547;-64
2022/09/16 03:25:10;;;;;;;7.32;1.55;;;12.10;95.00;;;;;;4965781;28;20785;-65
2022/09/16 03:27:44;;;;;;;6.10;1.45;;;12.10;94.90;;;;;;4975701;28;20393;-64
2022/09/16 03:30:10;;;;;;;6.57;1.63;;;12.10;95.00;;;;;;4972087;28;20101;-65
2022/09/16 03:32:48;;;;;;;9.05;2.05;;;12.10;95.00;;;;;;4953748;28;20396;-65
2022/09/16 03:35:24;;;;;;;8.52;1.95;;;12.10;95.20;;;;;;4969410;28;20133;-65
2022/09/16 03:37:50;;;;;;;7.20;1.73;;;12.10;95.20;;;;;;4943839;28;20050;-65
2022/09/16 03:40:17;;;;;;;5.60;1.60;;;12.00;95.20;;;;;;4968881;28;20046;-64
2022/09/16 03:42:42;;;;;;;8.73;1.70;;;12.10;95.10;;;;;;4956447;28;20051;-64
2022/09/16 03:45:19;;;;;;;7.65;1.88;;;12.10;95.20;;;;;;4975778;28;20047;-64
2022/09/16 03:47:48;;;;;;;5.05;1.85;;;12.00;95.30;;;;;;4957643;28;20047;-63
2022/09/16 03:50:15;;;;;;;;;;;12.00;95.50;;;;;;4973734;28;20051;-65
2022/09/16 03:52:53;;;;;;;7.28;2.17;;;12.00;95.50;;;;;;4969525;28;20016;-65
2022/09/16 03:55:22;;;;;;;;;;;12.00;95.50;;;;;;4969964;28;20051;-64
2022/09/16 03:57:47;;;;;;;8.10;2.13;;;12.00;95.50;;;;;;4954580;28;19914;-64
2022/09/16 04:00:14;;;;;;;6.18;1.88;;;12.00;95.70;;;;;;4970286;28;20070;-64
2022/09/16 04:02:40;;;;;;;4.65;2.00;;;12.00;95.70;;;;;;4966075;28;20058;-66
2022/09/16 04:05:08;;;;;;;4.72;1.85;;;11.90;95.70;;;;;;4966570;28;20077;-64
2022/09/16 04:07:34;;;;;;;12.57;2.53;;;11.90;95.70;;;;;;4942590;28;20043;-64
2022/09/16 04:10:00;;;;;;;6.82;2.50;;;11.90;95.80;;;;;;4948570;28;20047;-64
2022/09/16 04:12:26;;;;;;;4.93;1.83;;;11.90;95.80;;;;;;4965537;28;20154;-64
2022/09/16 04:14:52;;;;;;;4.40;2.00;;;11.90;95.80;;;;;;4950852;28;20073;-65
2022/09/16 04:17:19;;;;;;;6.40;2.25;;;11.90;95.70;;;;;;4964767;28;20480;-64
2022/09/16 04:19:45;;;;;;;7.22;2.00;;;11.90;95.80;;;;;;4963532;28;20361;-65
2022/09/16 04:22:12;;;;;;;9.93;2.78;;;11.90;95.80;;;;;;4952531;28;20047;-64
2022/09/16 04:24:38;;;;;;;12.40;2.65;;;11.90;96.00;;;;;;4953499;28;20062;-64
2022/09/16 04:27:04;;;;;;;8.32;2.40;;;11.90;96.00;;;;;;4939562;28;20047;-64
2022/09/16 04:29:31;;;;;;;7.45;2.15;;;11.90;96.00;;;;;;4965141;28;20073;-64
2022/09/16 04:31:56;;;;;;;9.77;2.40;;;11.90;96.00;;;;;;4943407;28;20146;-65
2022/09/16 04:34:23;;;;;;;7.82;2.40;;;11.90;95.90;;;;;;4964991;28;20476;-64
2022/09/16 04:36:49;;;;;;;9.85;2.25;;;11.90;95.70;;;;;;4948481;28;20050;-64
2022/09/16 04:39:15;;;;;;;8.63;2.58;;;11.90;95.90;;;;;;4971184;28;20047;-64
2022/09/16 04:41:41;;;;;;;7.63;2.33;;;11.80;95.90;;;;;;4963194;28;20051;-64
2022/09/16 04:44:08;;;;;;;7.80;1.90;;;11.90;95.90;;;;;;4957340;28;20051;-64
2022/09/16 04:46:34;;;;;;;6.75;1.70;;;11.90;95.80;;;;;;4955604;28;20051;-65
2022/09/16 04:49:00;;;;;;;8.82;2.78;;;11.80;95.90;;;;;;4952410;28;20113;-64
2022/09/16 04:51:26;;;;;;;8.23;2.10;;;11.90;95.90;;;;;;4967459;28;20061;-64
2022/09/16 04:53:56;;;;;;;6.15;2.17;;;11.80;95.80;;;;;;4960644;28;20113;-64
2022/09/16 04:56:23;;;;;;;8.90;2.25;;;11.90;95.90;;;;;;4945180;28;20051;-64
2022/09/16 04:58:51;;;;;;;5.70;2.10;;;11.90;95.80;;;;;;4969590;28;20058;-64
2022/09/16 05:01:22;;;;;;;8.57;2.20;;;11.80;95.90;;;;;;4955215;28;20050;-65
2022/09/16 05:03:49;;;;;;;7.90;2.10;;;11.80;95.80;;;;;;4942082;28;20050;-65
2022/09/16 05:06:17;;;;;;;6.40;1.77;;;11.90;95.90;;;;;;4940996;28;20043;-64
2022/09/16 05:08:43;;;;;;;7.78;2.08;;;11.90;95.80;;;;;;4948350;28;20047;-64
2022/09/16 05:11:13;;;;;;;7.20;2.15;;;11.90;95.80;;;;;;4955349;28;20338;-66
2022/09/16 05:13:39;;;;;;;5.18;1.77;;;11.90;95.80;;;;;;4954712;28;20508;-64
2022/09/16 05:16:07;;;;;;;6.15;1.67;;;11.90;95.70;;;;;;4958000;28;20051;-63
2022/09/16 05:18:36;;;;;;;11.60;1.80;;;11.90;95.80;;;;;;4973565;28;20780;-64
2022/09/16 05:21:03;;;;;;;6.35;1.83;;;11.90;95.80;;;;;;4945578;28;20456;-64
2022/09/16 05:23:29;;;;;;;7.45;1.45;;;12.00;95.70;;;;;;4967718;28;21917;-64
2022/09/16 05:25:55;;;;;;;7.50;1.83;;;11.90;95.80;;;;;;4963877;28;20118;-64
2022/09/16 05:28:21;;;;;;;7.75;1.70;;;11.90;95.70;;;;;;4970771;28;20047;-63
2022/09/16 05:30:46;;;;;;;5.32;1.50;;;12.00;95.80;;;;;;4953790;28;20631;-65
2022/09/16 05:33:12;;;;;;;6.03;1.60;;;12.00;95.70;;;;;;4951929;28;20050;-66
2022/09/16 05:35:38;;;;;;;5.22;1.42;;;12.00;95.70;;;;;;4963763;28;20057;-67
2022/09/16 05:38:04;;;;;;;6.43;1.70;;;12.00;95.70;;;;;;4948591;28;20039;-66
2022/09/16 05:40:30;;;;;;;6.65;1.42;;;12.10;95.70;;;;;;4969302;28;20050;-64
2022/09/16 05:42:56;;;;;;;5.95;1.63;;;12.10;95.50;;;;;;4960416;28;20441;-63
2022/09/16 05:45:22;;;;;;;6.53;1.40;;;12.10;95.40;;;;;;4979105;28;20062;-63
2022/09/16 05:47:48;;;;;;;5.18;1.40;;;12.10;95.50;;;;;;4960386;28;20053;-64
2022/09/16 05:50:14;;;;;;;4.90;1.80;;;12.10;95.40;;;;;;4964600;28;20051;-63
2022/09/16 05:52:39;;;;;;;7.53;1.48;;;12.10;95.50;;;;;;4946187;28;20051;-64
2022/09/16 05:55:05;;;;;;;8.70;2.13;;;12.10;95.40;;;;;;4962878;28;20050;-64
2022/09/16 05:57:31;;;;;;;5.88;1.52;;;12.10;95.40;;;;;;4963961;28;20385;-64
2022/09/16 05:59:57;;;;;;;5.18;1.70;;;12.10;95.30;;;;;;4975166;28;20071;-64
2022/09/16 06:02:26;;;;;;;4.57;1.60;;;12.20;95.30;;;;;;4957260;28;20071;-64
2022/09/16 06:04:52;;;;;;;4.50;1.58;;;12.20;95.30;;;;;;4974345;28;20704;-64
2022/09/16 06:07:19;;;;;;;3.95;1.52;;;12.10;95.10;;;;;;4937842;28;20368;-64
2022/09/16 06:09:46;;;;;;;10.20;2.42;;;12.20;95.20;;;;;;4956092;28;20062;-64
2022/09/16 06:12:11;;;;;;;6.53;1.50;;;12.20;94.90;;;;;;4945845;28;20047;-63
2022/09/16 06:14:37;;;;;;;9.50;1.23;;;12.20;94.90;;;;;;4960371;28;20120;-64
2022/09/16 06:17:03;;;;;;;5.13;1.30;;;12.20;94.70;;;;;;4962244;28;20129;-64
2022/09/16 06:19:29;;;;;;;7.00;1.50;;;12.30;94.60;;;;;;4952223;28;20061;-64
2022/09/16 06:21:54;;;;;;;6.97;1.60;;;12.30;94.50;;;;;;4954329;28;20510;-65
2022/09/16 06:24:20;;;;;;;5.55;1.70;;;12.30;94.60;;;;;;4937541;28;20063;-66
2022/09/16 06:26:46;;;;;;;5.63;1.23;;;12.30;94.50;;;;;;4966773;28;20099;-65
2022/09/16 06:29:13;;;;;;;6.47;1.83;;;12.30;94.50;;;;;;4944529;28;20051;-67
2022/09/16 06:31:39;;;;;;;6.22;1.25;;;12.30;94.40;;;;;;4966463;28;20109;-66
2022/09/16 06:34:05;;;;;;;4.35;1.50;;;12.30;94.80;;;;;;4969349;28;20054;-66
2022/09/16 06:36:36;;;;;;;4.13;1.20;;;12.30;94.50;;;;;;4955080;28;20491;-67
2022/09/16 06:39:03;;;;;;;9.52;1.38;;;12.30;94.60;;;;;;4977836;28;20054;-66
2022/09/16 06:41:30;;;;;;;3.47;1.25;;;12.30;94.70;;;;;;4966161;28;20979;-67
2022/09/16 06:43:56;;;;;;;4.60;1.88;;;12.30;94.70;;;;;;4967447;28;20070;-68
2022/09/16 06:46:24;;;;;;;8.15;1.90;;;12.40;94.80;;;;;;4956504;28;20053;-66
2022/09/16 06:48:51;;;;;;;;;;;12.50;94.30;;;;;;4954766;28;20053;-66
2022/09/16 06:51:27;;;;;;;10.30;2.08;;;12.50;94.20;;;;;;4970217;28;20009;-66
2022/09/16 06:53:55;;;;;;;3.92;1.50;;;12.60;94.30;;;;;;4966024;28;20125;-64
2022/09/16 06:56:21;;;;;;;5.60;1.25;;;12.60;94.00;;;;;;4952370;28;20054;-66
2022/09/16 06:58:49;;;;;;;5.82;1.50;;;12.60;93.90;;;;;;4965643;28;20052;-66
2022/09/16 07:01:19;;;;;;;6.10;1.40;;;12.60;93.90;;;;;;4941686;28;20054;-66
2022/09/16 07:03:47;;;;;;;8.98;1.60;;;12.50;93.70;;;;;;4949242;28;20100;-69
2022/09/16 07:06:13;;;;;;;6.63;1.52;;;12.40;93.60;;;;;;4973914;28;20046;-68
2022/09/16 07:08:39;;;;;;;4.55;1.40;;;12.40;93.90;;;;;;4971747;28;20050;-69
2022/09/16 07:11:17;;;;;;;11.63;1.70;;;12.50;94.00;;;;;;4956606;28;20114;-68
2022/09/16 07:13:43;;;;;;;3.80;1.27;;;12.50;93.80;;;;;;4964145;28;20056;-69
2022/09/16 07:16:10;;;;;;;5.25;1.10;;;12.50;93.80;;;;;;4952019;28;20047;-69
2022/09/16 07:18:37;;;;;;;8.18;1.52;;;12.60;93.80;;;;;;4954992;28;20145;-69
2022/09/16 07:21:04;;;;;;;4.80;1.58;;;12.60;93.70;;;;;;4954897;28;20047;-66
2022/09/16 07:23:31;;;;;;;9.95;1.50;;;12.70;93.00;;;;;;4927987;28;20896;-66
2022/09/16 07:26:07;;;;;;;5.65;1.40;;;12.70;93.30;;;;;;4973434;28;20062;-68
2022/09/16 07:28:34;;;;;;;7.38;1.10;;;12.70;92.60;;;;;;4952429;28;20085;-64
2022/09/16 07:31:01;;;;;;;2.65;0.90;;;12.80;92.60;;;;;;4953647;28;20043;-63
2022/09/16 07:33:28;;;;;;;3.25;1.00;;;12.80;92.40;;;;;;4956982;28;20081;-65
2022/09/16 07:35:58;;;;;;;6.33;1.20;;;12.80;92.30;;;;;;4933536;28;20444;-68
2022/09/16 07:38:23;;;;;;;4.03;1.00;;;12.70;92.70;;;;;;4966423;28;20047;-69
2022/09/16 07:40:49;;;;;;;5.63;0.80;;;12.70;92.20;;;;;;4948904;28;20047;-69
2022/09/16 07:43:15;;;;;;;6.72;1.10;;;12.80;92.60;;;;;;4949107;28;20134;-69
2022/09/16 07:45:41;;;;;;;6.13;1.35;;;12.90;92.40;;;;;;4950323;28;20595;-68
2022/09/16 07:48:06;;;;;;;3.88;1.10;;;12.90;92.10;;;;;;4954799;28;20081;-68
2022/09/16 07:50:32;;;;;;;9.68;1.20;;;12.90;91.80;;;;;;4973349;28;20050;-68
2022/09/16 07:52:58;;;;;;;5.13;1.42;;;12.90;91.40;;;;;;4967353;28;20047;-68
2022/09/16 07:55:26;;;;;;;4.32;0.77;;;12.80;91.30;;;;;;4966720;28;20070;-68
2022/09/16 07:57:52;;;;;;;13.27;1.00;;;12.90;91.20;;;;;;4973287;28;20429;-68
2022/09/16 08:00:18;;;;;;;5.47;1.08;;;13.00;90.70;;;;;;4964889;28;20055;-68
2022/09/16 08:02:44;;;;;;;5.95;1.00;;;13.10;90.70;;;;;;4947782;28;20058;-68
2022/09/16 08:05:09;;;;;;;5.30;1.10;;;13.10;90.40;;;;;;4964162;28;20146;-67
2022/09/16 08:07:35;;;;;;;4.45;0.70;;;13.20;90.30;;;;;;4972217;28;20145;-66
2022/09/16 08:10:01;;;;;;;5.15;1.02;;;13.30;90.30;;;;;;4971069;28;20042;-67
2022/09/16 08:12:31;;;;;;;5.85;1.00;;;13.40;90.40;;;;;;4952819;28;20046;-67
2022/09/16 08:14:58;;;;;;;5.22;1.23;;;13.40;90.00;;;;;;4976973;28;20065;-67
2022/09/16 08:17:25;;;;;;;6.43;1.45;;;13.50;90.00;;;;;;4956769;28;20666;-67
2022/09/16 08:19:51;;;;;;;8.48;1.27;;;13.60;89.50;;;;;;4938388;28;20066;-67
2022/09/16 08:22:16;;;;;;;9.45;1.05;;;13.60;89.20;;;;;;4954294;28;20085;-66
2022/09/16 08:24:42;;;;;;;10.00;1.08;;;13.60;89.10;;;;;;4932505;28;20058;-66
2022/09/16 08:27:08;;;;;;;7.25;1.00;;;13.60;88.80;;;;;;4949638;28;20046;-67
2022/09/16 08:29:34;;;;;;;3.67;1.17;;;13.60;88.90;;;;;;4931666;28;20129;-67
2022/09/16 08:32:00;;;;;;;4.65;1.00;;;13.60;87.90;;;;;;4973270;28;20512;-63
2022/09/16 08:34:26;;;;;;;5.85;0.95;;;13.80;88.10;;;;;;4956119;28;20370;-65
2022/09/16 08:36:52;;;;;;;8.07;1.30;;;13.90;85.90;;;;;;4961755;28;20074;-65
2022/09/16 08:39:18;;;;;;;5.38;0.98;;;14.00;86.90;;;;;;4963551;28;20078;-64
2022/09/16 08:42:09;;;;;;;6.70;1.20;;;14.00;85.80;;;;;;4972781;28;20050;-65
2022/09/16 08:44:45;;;;;;;7.43;1.55;;;14.20;85.00;;;;;;4953852;28;20046;-65
2022/09/16 08:47:41;;;;;;;6.40;1.25;;;14.20;84.00;;;;;;4955456;28;20602;-66
2022/09/16 08:50:11;;;;;;;6.53;1.13;;;14.20;83.60;;;;;;4970799;28;20062;-66
2022/09/16 08:52:38;;;;;;;4.93;1.08;;;14.20;83.70;;;;;;4955515;28;20121;-65
2022/09/16 08:55:16;;;;;;;7.65;1.00;;;14.20;81.20;;;;;;4972119;28;20054;-66
2022/09/16 08:57:55;;;;;;;6.38;1.13;;;14.30;81.40;;;;;;4940687;28;20133;-65
2022/09/16 09:00:21;;;;;;;7.43;1.75;;;14.20;82.20;;;;;;4977722;28;20070;-65
2022/09/16 09:02:54;;;;;;;8.57;1.20;;;14.20;79.50;;;;;;4972190;28;20055;-65
2022/09/16 09:05:23;;;;;;;7.68;1.63;;;14.20;81.20;;;;;;4973876;28;20134;-65
2022/09/16 09:08:06;;;;;;;7.05;0.98;;;14.20;81.10;;;;;;4964191;28;20049;-66
2022/09/16 09:10:43;;;;;;;4.63;1.05;;;14.20;82.10;;;;;;4972067;28;20401;-66
2022/09/16 09:14:06;;;;;;;7.85;1.83;;;14.20;81.50;;;;;;4985097;28;20559;-66
2022/09/16 09:16:37;;;;;;;8.00;1.42;;;14.20;80.50;;;;;;4896550;29;20206;-65
2022/09/16 09:19:31;;;;;;;8.75;1.40;;;14.40;80.20;;;;;;4910308;29;20148;-65
2022/09/16 09:22:08;;;;;;;10.82;2.10;;;14.50;78.80;;;;;;4937164;28;20055;-66
2022/09/16 09:25:05;;;;;;;8.00;1.10;;;14.40;77.90;;;;;;4959809;28;20126;-66
2022/09/16 09:28:00;;;;;;;10.43;1.70;;;14.50;77.90;;;;;;4975188;28;20043;-66
2022/09/16 09:30:31;;;;;;;9.05;1.58;;;14.50;77.40;;;;;;4919030;28;20406;-66
2022/09/16 09:33:09;;;;;;;6.57;1.65;;;14.50;76.90;;;;;;4965159;28;20587;-65
2022/09/16 09:35:35;;;;;;;8.50;1.30;;;14.50;76.90;;;;;;4964691;28;20047;-65
2022/09/16 09:38:13;;;;;;;11.40;1.20;;;14.60;74.70;;;;;;4959441;28;20047;-65
2022/09/16 09:41:17;;;;;;;4.95;1.10;;;14.60;75.00;;;;;;4957120;28;20051;-65
2022/09/16 09:43:57;;;;;;;9.30;1.35;;;14.60;75.40;;;;;;4961297;28;20162;-65
2022/09/16 09:46:23;;;;;;;9.85;1.63;;;14.90;74.50;;;;;;4979011;28;20073;-65
2022/09/16 09:49:14;;;;;;;8.75;1.23;;;14.90;74.10;;;;;;4959551;28;20051;-65
2022/09/16 09:51:50;;;;;;;7.03;1.60;;;15.00;74.00;;;;;;4958673;28;20517;-66
2022/09/16 09:54:25;;;;;;;13.65;2.30;;;15.20;74.80;;;;;;4975994;28;20066;-66
2022/09/16 09:57:16;;;;;;;10.75;1.50;;;15.20;72.80;;;;;;4958389;28;20047;-65
2022/09/16 09:59:43;;;;;;;9.18;2.55;;;15.40;73.10;;;;;;4964281;28;20126;-65
2022/09/16 10:02:16;;;;;;;8.13;1.35;;;15.40;70.90;;;;;;4956185;28;20043;-66
2022/09/16 10:04:43;;;;;;;7.93;1.45;;;15.50;70.70;;;;;;4953744;28;20083;-66
2022/09/16 10:07:10;;;;;;;5.70;1.33;;;15.70;71.60;;;;;;4951945;28;20082;-66
2022/09/16 10:09:35;;;;;;;6.00;1.33;;;16.00;71.30;;;;;;4931478;28;20054;-66
2022/09/16 10:12:01;;;;;;;6.20;1.75;;;16.00;67.50;;;;;;4941814;28;20043;-65
2022/09/16 10:14:35;;;;;;;5.30;1.13;;;15.90;67.00;;;;;;4946529;28;20078;-65
2022/09/16 10:17:13;;;;;;;8.23;1.48;;;15.90;68.10;;;;;;4961036;28;20082;-67
2022/09/16 10:19:52;;;;;;;8.88;1.15;;;16.10;66.90;;;;;;4968909;28;20125;-66
2022/09/16 10:22:24;;;;;;;8.95;1.52;;;16.20;65.20;;;;;;4942094;28;20153;-65
2022/09/16 10:24:57;;;;;;;6.13;1.17;;;16.00;63.70;;;;;;4973502;28;20054;-64
2022/09/16 10:27:26;;;;;;;12.00;1.60;;;15.70;69.60;;;;;;4964381;28;20093;-66
2022/09/16 10:30:12;;;;;;;5.68;1.20;;;15.40;71.50;;;;;;4963790;28;20605;-66
2022/09/16 10:32:45;;;;;;;11.52;1.73;;;15.60;70.30;;;;;;4975406;28;20038;-66
2022/09/16 10:35:24;;;;;;;7.50;1.55;;;15.80;68.80;;;;;;4964779;28;20051;-66
2022/09/16 10:37:55;;;;;;;8.07;1.67;;;15.90;68.80;;;;;;4961896;28;20142;-66
2022/09/16 10:40:22;;;;;;;5.45;1.20;;;15.90;69.00;;;;;;4960943;28;20136;-66
2022/09/16 10:42:52;;;;;;;8.15;1.30;;;16.00;67.10;;;;;;4961174;28;20144;-66
2022/09/16 10:45:35;;;;;;;7.13;1.15;;;16.00;66.00;;;;;;4977169;28;20061;-65
2022/09/16 10:48:09;;;;;;;7.07;1.15;;;15.90;65.30;;;;;;4961738;28;20365;-66
2022/09/16 10:50:35;;;;;;;6.45;0.90;;;15.50;66.40;;;;;;4959947;28;20121;-65
2022/09/16 10:53:01;;;;;;;4.45;0.98;;;15.20;66.80;;;;;;4956040;28;20256;-65
2022/09/16 10:55:34;;;;;;;10.15;1.67;;;15.20;68.10;;;;;;4950986;28;20047;-66
2022/09/16 10:58:16;;;;;;;5.05;1.00;;;15.40;67.90;;;;;;4946378;28;20046;-66
2022/09/16 11:00:57;;;;;;;7.45;1.13;;;15.70;68.50;;;;;;4960280;28;20142;-65
2022/09/16 11:03:48;;;;;;;5.15;1.30;;;15.80;68.10;;;;;;4955258;28;20043;-66
2022/09/16 11:06:48;;;;;;;10.57;1.10;;;16.20;68.70;;;;;;4960435;28;20083;-66
2022/09/16 11:09:13;;;;;;;5.03;1.00;;;16.60;67.90;;;;;;4962651;28;20074;-66
2022/09/16 11:11:48;;;;;;;10.55;1.90;;;16.70;66.80;;;;;;4961918;28;20079;-65
2022/09/16 11:14:32;;;;;;;7.85;1.17;;;16.90;64.40;;;;;;4953933;28;20067;-65
2022/09/16 11:17:23;;;;;;;7.72;1.70;;;16.80;62.90;;;;;;4966271;28;20081;-65
2022/09/16 11:20:14;;;;;;;6.82;1.38;;;16.60;63.40;;;;;;4959892;28;20617;-65
2022/09/16 11:22:55;;;;;;;6.28;1.50;;;16.00;64.20;;;;;;4939816;28;20039;-65
2022/09/16 11:25:30;;;;;;;8.82;1.75;;;15.80;70.70;;;;;;4944370;28;20059;-66
2022/09/16 11:28:25;;;;;;;8.93;1.33;;;15.80;72.10;;;;;;4957360;28;20047;-65
2022/09/16 11:31:13;;;;;;;6.68;1.33;;;15.80;71.20;;;;;;4970863;28;20047;-74
2022/09/16 11:33:45;;;;;;;;;;;16.20;70.90;;;;;;4948652;28;20121;-74
2022/09/16 11:36:33;;;;;;;6.00;1.17;;;16.30;69.90;;;;;;4964033;28;19981;-73
2022/09/16 11:39:33;;;;;;;7.07;1.08;;;16.60;65.30;;;;;;4966841;28;20133;-73
2022/09/16 11:42:04;;;;;;;8.07;1.35;;;16.90;65.30;;;;;;4962250;28;20047;-72
2022/09/16 11:44:39;;;;;;;8.75;1.63;;;17.00;61.60;;;;;;4952922;28;20043;-72
2022/09/16 11:47:17;;;;;;;6.78;1.25;;;17.20;60.10;;;;;;4946457;28;20053;-72
2022/09/16 11:49:49;;;;;;;;;;;17.30;60.70;;;;;;4956224;28;20043;-72
2022/09/16 11:52:21;;;;;;;7.82;1.20;;;17.10;59.30;;;;;;4961429;28;19925;-72
2022/09/16 11:55:26;;;;;;;7.53;1.08;;;17.00;60.70;;;;;;4948074;28;20166;-63
2022/09/16 11:57:57;;;;;;;5.93;1.08;;;16.70;61.20;;;;;;4957544;28;20142;-63
2022/09/16 12:00:23;;;;;;;8.68;1.20;;;16.90;60.80;;;;;;4952008;28;20421;-62
2022/09/16 12:02:51;;;;;;;8.13;1.40;;;16.60;58.50;;;;;;4936408;28;20454;-63
2022/09/16 12:05:26;;;;;;;6.28;1.17;;;16.60;59.90;;;;;;4952435;28;20093;-63
2022/09/16 12:08:11;;;;;;;5.57;1.20;;;16.50;59.40;;;;;;4957589;28;20053;-63
2022/09/16 12:10:42;;;;;;;9.40;1.30;;;16.60;56.40;;;;;;4957268;28;20086;-63
2022/09/16 12:13:18;;;;;;;5.15;1.20;;;16.90;56.80;;;;;;4959379;28;20377;-62
2022/09/16 12:16:04;;;;;;;8.10;1.60;;;16.90;55.50;;;;;;4953845;28;20043;-63
2022/09/16 12:18:51;;;;;;;7.40;1.10;;;17.00;56.60;;;;;;4956855;28;20051;-65
2022/09/16 12:21:28;;;;;;;7.05;1.42;;;17.10;56.30;;;;;;4947501;28;20110;-62
2022/09/16 12:24:03;;;;;;;4.05;1.05;;;17.20;56.60;;;;;;4953533;28;20074;-62
2022/09/16 12:26:41;;;;;;;6.57;1.40;;;17.50;56.40;;;;;;4959454;28;20042;-63
2022/09/16 12:29:17;;;;;;;7.80;1.30;;;17.70;57.00;;;;;;4960415;28;20043;-63
2022/09/16 12:31:51;;;;;;;6.20;1.35;;;17.60;56.10;;;;;;4942807;28;20369;-62
2022/09/16 12:34:32;;;;;;;8.88;1.25;;;17.90;55.60;;;;;;4947645;28;20043;-63
2022/09/16 12:37:21;;;;;;;5.82;1.40;;;18.60;51.80;;;;;;4957227;28;20047;-62
2022/09/16 12:39:48;;;;;;;5.50;1.20;;;18.10;54.30;;;;;;4956498;28;20043;-63
2022/09/16 12:42:39;;;;;;;6.22;1.60;;;18.20;53.80;;;;;;4947913;28;20109;-63
2022/09/16 12:45:05;;;;;;;9.52;1.60;;;18.60;52.40;;;;;;4950783;28;20134;-68
2022/09/16 12:47:45;;;;;;;7.90;1.45;;;19.70;51.10;;;;;;4955517;28;20551;-68
2022/09/16 12:50:36;;;;;;;4.45;1.10;;;19.40;50.60;;;;;;4963581;28;20055;-67
2022/09/16 12:53:22;;;;;;;6.00;1.40;;;18.60;52.90;;;;;;4948442;28;20067;-67
2022/09/16 12:56:20;;;;;;;7.13;1.23;;;18.20;54.20;;;;;;4950338;28;20102;-66
2022/09/16 12:58:52;;;;;;;;;;;17.70;57.10;;;;;;4970747;28;20063;-67
2022/09/16 13:01:25;;;;;;;4.72;0.95;;;17.40;58.50;;;;;;4959118;28;19914;-69
2022/09/16 13:03:54;;;;;;;2.88;0.80;;;18.10;56.40;;;;;;4952435;28;20058;-69
2022/09/16 13:06:33;;;;;;;2.03;0.65;;;18.00;54.90;;;;;;4957991;28;20085;-69
2022/09/16 13:09:21;;;;;;;4.18;0.93;;;18.30;53.70;;;;;;4960609;28;20186;-70
2022/09/16 13:12:17;;;;;;;2.95;1.00;;;18.50;54.10;;;;;;4973252;28;20504;-70
2022/09/16 13:14:43;;;;;;;3.97;1.30;;;19.00;54.10;;;;;;4959432;28;20054;-70
2022/09/16 13:17:09;;;;;;;5.78;1.48;;;19.10;52.60;;;;;;4964658;28;20399;-70